createdAt,value
2018-05-10T00:01:52.670Z,16.66
2018-05-10T00:04:18.602Z,16.63
2018-05-10T00:06:44.537Z,16.68
2018-05-10T00:09:10.451Z,16.68
2018-05-10T00:11:36.396Z,16.61
2018-05-10T00:14:02.344Z,16.56
2018-05-10T00:16:28.250Z,16.52
2018-05-10T00:18:54.163Z,16.45
2018-05-10T00:21:20.080Z,16.48
2018-05-10T00:23:46.000Z,16.49
2018-05-10T00:26:11.929Z,16.43
2018-05-10T00:28:37.850Z,16.43
2018-05-10T00:31:03.806Z,16.45
2018-05-10T00:33:29.787Z,16.57
2018-05-10T00:35:55.657Z,16.48
2018-05-10T00:38:21.574Z,16.41
2018-05-10T00:40:47.584Z,16.43
2018-05-10T00:43:13.503Z,16.38
2018-05-10T00:45:39.438Z,16.33
2018-05-10T00:48:05.370Z,16.27
2018-05-10T00:50:31.295Z,16.17
2018-05-10T00:52:57.244Z,16.17
2018-05-10T00:55:23.171Z,16.24
2018-05-10T00:57:49.084Z,16.23
2018-05-10T01:00:14.988Z,16.23
2018-05-10T01:02:40.891Z,16.17
2018-05-10T01:05:06.845Z,16.11
2018-05-10T01:07:32.815Z,16.10
2018-05-10T01:09:58.728Z,16.05
2018-05-10T01:12:24.648Z,16.04
2018-05-10T01:14:50.569Z,15.99
2018-05-10T01:17:16.508Z,15.89
2018-05-10T01:19:42.424Z,15.84
2018-05-10T01:22:08.378Z,15.85
2018-05-10T01:24:34.308Z,15.91
2018-05-10T01:27:00.232Z,15.82
2018-05-10T01:29:26.161Z,15.86
2018-05-10T01:31:52.061Z,15.86
2018-05-10T01:34:17.988Z,15.84
2018-05-10T01:36:43.898Z,15.81
2018-05-10T01:39:09.836Z,15.74
2018-05-10T01:41:35.751Z,15.74
2018-05-10T01:44:01.661Z,15.67
2018-05-10T01:46:27.609Z,15.61
2018-05-10T01:48:53.558Z,15.65
2018-05-10T01:51:19.503Z,15.59
2018-05-10T01:53:45.449Z,15.54
2018-05-10T01:56:12.198Z,15.61
2018-05-10T01:58:38.102Z,15.60
2018-05-10T02:01:04.032Z,15.57
2018-05-10T02:03:29.937Z,15.61
2018-05-10T02:05:55.870Z,15.58
2018-05-10T02:08:21.782Z,15.56
2018-05-10T02:10:47.708Z,15.61
2018-05-10T02:13:13.630Z,15.53
2018-05-10T02:15:39.530Z,15.62
2018-05-10T02:18:05.445Z,15.61
2018-05-10T02:20:31.336Z,15.60
2018-05-10T02:22:57.287Z,15.64
2018-05-10T02:25:23.201Z,15.63
2018-05-10T02:27:49.131Z,15.85
2018-05-10T02:30:15.055Z,15.98
2018-05-10T02:32:40.995Z,16.11
2018-05-10T02:35:06.961Z,16.17
2018-05-10T02:37:32.961Z,16.08
2018-05-10T02:39:58.904Z,16.14
2018-05-10T02:42:24.831Z,15.99
2018-05-10T02:44:50.857Z,15.97
2018-05-10T02:47:16.754Z,16.03
2018-05-10T02:49:42.686Z,16.15
2018-05-10T02:52:08.602Z,16.10
2018-05-10T02:54:34.532Z,16.02
2018-05-10T02:57:00.468Z,15.98
2018-05-10T02:59:26.463Z,15.91
2018-05-10T03:01:52.399Z,15.88
2018-05-10T03:04:18.313Z,15.79
2018-05-10T03:06:44.272Z,15.77
2018-05-10T03:09:10.174Z,15.77
2018-05-10T03:11:36.110Z,15.75
2018-05-10T03:14:02.024Z,15.64
2018-05-10T03:16:27.968Z,15.63
2018-05-10T03:18:53.873Z,15.65
2018-05-10T03:21:19.822Z,15.42
2018-05-10T03:23:45.774Z,15.43
2018-05-10T03:26:11.684Z,15.60
2018-05-10T03:28:37.602Z,15.64
2018-05-10T03:31:03.515Z,15.67
2018-05-10T03:33:29.450Z,15.79
2018-05-10T03:35:55.373Z,15.82
2018-05-10T03:38:21.319Z,15.83
2018-05-10T03:40:47.227Z,15.84
2018-05-10T03:43:13.169Z,15.81
2018-05-10T03:45:39.075Z,15.77
2018-05-10T03:48:05.003Z,15.75
2018-05-10T03:50:30.907Z,15.77
2018-05-10T03:52:56.871Z,15.77
2018-05-10T03:55:22.821Z,15.86
2018-05-10T03:57:48.747Z,15.90
2018-05-10T04:00:14.645Z,15.92
2018-05-10T04:06:05.890Z,16.00
2018-05-10T04:08:44.035Z,16.05
2018-05-10T04:11:25.411Z,16.11
2018-05-10T04:13:51.371Z,16.09
2018-05-10T04:16:17.270Z,16.09
2018-05-10T04:18:43.197Z,16.05
2018-05-10T04:21:09.150Z,15.91
2018-05-10T04:23:35.095Z,15.89
2018-05-10T04:26:01.019Z,15.99
2018-05-10T04:28:26.935Z,16.02
2018-05-10T04:30:52.923Z,16.10
2018-05-10T04:33:18.843Z,16.16
2018-05-10T04:35:44.799Z,16.19
2018-05-10T04:38:10.717Z,16.24
2018-05-10T04:40:36.620Z,16.18
2018-05-10T04:43:02.556Z,16.24
2018-05-10T04:45:28.519Z,16.30
2018-05-10T04:47:54.465Z,16.32
2018-05-10T04:50:20.385Z,16.43
2018-05-10T04:52:46.328Z,16.45
2018-05-10T04:55:12.245Z,16.59
2018-05-10T04:57:38.158Z,16.70
2018-05-10T05:00:04.109Z,16.79
2018-05-10T05:02:30.033Z,16.85
2018-05-10T05:04:55.947Z,16.85
2018-05-10T05:07:21.869Z,16.84
2018-05-10T05:09:47.795Z,16.87
2018-05-10T05:12:13.735Z,16.84
2018-05-10T05:14:39.638Z,16.80
2018-05-10T05:17:05.575Z,16.79
2018-05-10T05:19:31.535Z,16.76
2018-05-10T05:21:57.441Z,16.84
2018-05-10T05:24:23.375Z,16.77
2018-05-10T05:26:49.345Z,16.78
2018-05-10T05:29:15.239Z,16.81
2018-05-10T05:31:41.163Z,16.82
2018-05-10T05:34:07.069Z,16.77
2018-05-10T05:36:33.002Z,16.86
2018-05-10T05:38:58.908Z,16.88
2018-05-10T05:41:24.841Z,17.02
2018-05-10T05:43:50.807Z,17.08
2018-05-10T05:46:16.740Z,17.12
2018-05-10T05:48:42.641Z,17.15
2018-05-10T05:51:08.585Z,17.18
2018-05-10T05:53:34.518Z,17.25
2018-05-10T05:56:00.461Z,17.21
2018-05-10T05:58:26.388Z,17.20
2018-05-10T06:00:52.450Z,17.34
2018-05-10T06:03:18.308Z,17.34
2018-05-10T06:05:44.232Z,17.60
2018-05-10T06:08:10.174Z,17.77
2018-05-10T06:10:36.119Z,17.85
2018-05-10T06:13:02.066Z,17.99
2018-05-10T06:15:28.087Z,18.05
2018-05-10T06:17:53.964Z,18.02
2018-05-10T06:20:19.874Z,18.08
2018-05-10T06:22:45.813Z,18.24
2018-05-10T06:25:11.812Z,18.34
2018-05-10T06:27:37.699Z,18.43
2018-05-10T06:30:03.692Z,18.49
2018-05-10T06:32:29.605Z,18.58
2018-05-10T06:34:55.577Z,18.64
2018-05-10T06:37:21.521Z,18.72
2018-05-10T06:39:47.465Z,18.74
2018-05-10T06:42:13.384Z,18.80
2018-05-10T06:44:39.319Z,18.86
2018-05-10T06:47:05.246Z,18.85
2018-05-10T06:49:31.187Z,18.91
2018-05-10T06:51:57.136Z,19.05
2018-05-10T06:54:23.097Z,19.04
2018-05-10T06:56:49.034Z,19.12
2018-05-10T06:59:14.965Z,19.12
2018-05-10T07:01:40.900Z,19.25
2018-05-10T07:04:06.856Z,19.38
2018-05-10T07:06:32.804Z,19.40
2018-05-10T07:08:58.741Z,19.49
2018-05-10T07:11:24.670Z,19.52
2018-05-10T07:13:50.593Z,19.57
2018-05-10T07:16:16.541Z,19.71
2018-05-10T07:18:42.482Z,19.78
2018-05-10T07:21:08.466Z,19.82
2018-05-10T07:23:34.397Z,19.90
2018-05-10T07:26:00.299Z,19.95
2018-05-10T07:28:26.237Z,19.97
2018-05-10T07:30:52.150Z,20.10
2018-05-10T07:33:18.088Z,20.17
2018-05-10T07:35:43.999Z,20.25
2018-05-10T07:38:09.927Z,20.32
2018-05-10T07:40:35.867Z,20.45
2018-05-10T07:43:01.830Z,20.55
2018-05-10T07:45:27.763Z,20.55
2018-05-10T07:47:53.674Z,20.70
2018-05-10T07:50:19.581Z,20.70
2018-05-10T07:52:45.498Z,20.68
2018-05-10T07:55:11.479Z,20.77
2018-05-10T07:57:37.391Z,20.88
2018-05-10T08:00:03.312Z,20.87
2018-05-10T08:02:29.248Z,21.04
2018-05-10T08:04:55.166Z,21.06
2018-05-10T08:07:21.114Z,21.05
2018-05-10T08:09:47.113Z,21.21
2018-05-10T08:12:13.073Z,21.26
2018-05-10T08:14:39.013Z,21.35
2018-05-10T08:17:04.978Z,21.42
2018-05-10T08:19:30.922Z,21.45
2018-05-10T08:21:56.869Z,21.65
2018-05-10T08:24:22.823Z,21.81
2018-05-10T08:26:48.774Z,21.85
2018-05-10T08:29:14.732Z,21.90
2018-05-10T08:31:40.655Z,21.95
2018-05-10T08:34:06.602Z,21.88
2018-05-10T08:36:32.580Z,21.98
2018-05-10T08:38:58.476Z,22.14
2018-05-10T08:41:24.414Z,22.32
2018-05-10T08:43:50.323Z,22.41
2018-05-10T08:46:16.264Z,22.45
2018-05-10T08:48:42.180Z,22.57
2018-05-10T08:51:08.142Z,22.51
2018-05-10T08:53:34.078Z,22.39
2018-05-10T08:56:00.028Z,22.55
2018-05-10T08:58:25.935Z,22.74
2018-05-10T09:00:51.868Z,22.90
2018-05-10T09:03:17.782Z,22.93
2018-05-10T09:05:43.696Z,23.11
2018-05-10T09:08:09.641Z,23.20
2018-05-10T09:10:35.551Z,23.17
2018-05-10T09:13:01.474Z,23.20
2018-05-10T09:15:27.431Z,23.09
2018-05-10T09:17:53.362Z,23.29
2018-05-10T09:20:19.359Z,23.30
2018-05-10T09:22:45.209Z,23.14
2018-05-10T09:25:11.135Z,23.19
2018-05-10T09:27:37.055Z,23.40
2018-05-10T09:30:03.069Z,23.38
2018-05-10T09:32:29.004Z,23.41
2018-05-10T09:34:54.979Z,23.43
2018-05-10T09:37:20.962Z,23.47
2018-05-10T09:39:46.937Z,23.56
2018-05-10T09:42:12.849Z,23.68
2018-05-10T09:44:38.800Z,23.76
2018-05-10T09:47:04.745Z,23.68
2018-05-10T09:49:30.670Z,23.62
2018-05-10T09:51:56.618Z,23.67
2018-05-10T09:54:22.540Z,23.70
2018-05-10T09:56:48.459Z,23.94
2018-05-10T09:59:14.398Z,24.03
2018-05-10T10:01:40.392Z,24.12
2018-05-10T10:04:06.333Z,24.49
2018-05-10T10:06:32.268Z,24.57
2018-05-10T10:08:58.208Z,24.47
2018-05-10T10:11:24.156Z,24.56
2018-05-10T10:13:50.211Z,24.60
2018-05-10T10:16:16.140Z,24.69
2018-05-10T10:18:42.083Z,24.51
2018-05-10T10:21:08.018Z,24.35
2018-05-10T10:23:33.944Z,24.15
2018-05-10T10:25:59.848Z,24.18
2018-05-10T10:28:25.778Z,24.46
2018-05-10T10:30:51.753Z,24.71
2018-05-10T10:33:17.687Z,24.73
2018-05-10T10:35:43.647Z,24.66
2018-05-10T10:38:10.213Z,24.51
2018-05-10T10:40:36.123Z,24.46
2018-05-10T10:43:02.049Z,24.36
2018-05-10T10:45:28.064Z,24.19
2018-05-10T10:47:53.946Z,24.03
2018-05-10T10:50:19.877Z,23.90
2018-05-10T10:52:45.885Z,23.77
2018-05-10T10:55:11.785Z,23.71
2018-05-10T10:57:37.721Z,23.65
2018-05-10T11:00:03.661Z,23.60
2018-05-10T11:02:29.640Z,23.52
2018-05-10T11:04:55.557Z,23.43
2018-05-10T11:07:21.498Z,23.34
2018-05-10T11:09:47.444Z,23.27
2018-05-10T11:12:13.413Z,23.19
2018-05-10T11:14:39.340Z,23.06
2018-05-10T11:17:05.317Z,22.98
2018-05-10T11:19:31.247Z,22.95
2018-05-10T11:21:57.165Z,22.88
2018-05-10T11:24:23.115Z,22.79
2018-05-10T11:26:49.042Z,22.76
2018-05-10T11:29:14.972Z,22.74
2018-05-10T11:31:40.930Z,22.67
2018-05-10T11:34:06.880Z,22.54
2018-05-10T11:36:32.830Z,22.40
2018-05-10T11:38:58.759Z,22.25
2018-05-10T11:41:24.710Z,22.13
2018-05-10T11:43:50.690Z,22.04
2018-05-10T11:46:16.633Z,21.96
2018-05-10T11:48:42.565Z,21.91
2018-05-10T11:51:08.501Z,21.88
2018-05-10T11:53:34.440Z,21.89
2018-05-10T11:56:00.372Z,21.93
2018-05-10T11:58:26.300Z,22.03
2018-05-10T12:00:52.234Z,22.08
2018-05-10T12:03:18.183Z,22.12
2018-05-10T12:05:44.112Z,22.23
2018-05-10T12:08:10.052Z,22.46
2018-05-10T12:10:36.015Z,22.88
2018-05-10T12:13:01.935Z,22.95
2018-05-10T12:15:27.848Z,23.20
2018-05-10T12:17:53.787Z,23.21
2018-05-10T12:20:19.751Z,23.29
2018-05-10T12:22:45.678Z,23.12
2018-05-10T12:25:11.615Z,23.21
2018-05-10T12:27:37.588Z,23.27
2018-05-10T12:30:03.507Z,23.51
2018-05-10T12:32:29.449Z,24.43
2018-05-10T12:34:55.359Z,25.24
2018-05-10T12:37:21.319Z,24.74
2018-05-10T12:39:47.243Z,24.23
2018-05-10T12:42:13.228Z,23.84
2018-05-10T12:44:39.190Z,23.24
2018-05-10T12:47:05.142Z,23.03
2018-05-10T12:49:31.075Z,22.76
2018-05-10T12:51:56.992Z,22.73
2018-05-10T12:54:22.938Z,22.53
2018-05-10T12:56:48.894Z,22.42
2018-05-10T12:59:14.853Z,22.18
2018-05-10T13:01:40.764Z,22.22
2018-05-10T13:04:06.712Z,22.07
2018-05-10T13:06:32.632Z,22.06
2018-05-10T13:08:58.580Z,21.97
2018-05-10T13:11:24.530Z,21.83
2018-05-10T13:13:50.454Z,21.86
2018-05-10T13:16:16.412Z,21.78
2018-05-10T13:18:42.320Z,21.76
2018-05-10T13:21:08.252Z,21.66
2018-05-10T13:23:34.179Z,21.69
2018-05-10T13:26:00.120Z,21.66
2018-05-10T13:28:26.053Z,21.46
2018-05-10T13:30:52.001Z,21.45
2018-05-10T13:33:17.959Z,21.48
2018-05-10T13:35:43.923Z,21.48
2018-05-10T13:38:09.847Z,21.42
2018-05-10T13:40:35.785Z,21.30
2018-05-10T13:43:01.711Z,21.29
2018-05-10T13:45:27.661Z,21.27
2018-05-10T13:47:53.581Z,21.22
2018-05-10T13:50:19.499Z,21.20
2018-05-10T13:52:45.427Z,20.98
2018-05-10T13:55:11.351Z,20.91
2018-05-10T13:57:37.362Z,20.82
2018-05-10T14:00:03.281Z,20.71
2018-05-10T14:02:29.213Z,20.57
2018-05-10T14:04:55.159Z,20.51
2018-05-10T14:07:21.119Z,20.33
2018-05-10T14:09:47.095Z,20.20
2018-05-10T14:12:13.061Z,20.16
2018-05-10T14:14:39.021Z,20.03
2018-05-10T14:17:04.950Z,19.80
2018-05-10T14:19:30.915Z,19.65
2018-05-10T14:21:56.902Z,19.58
2018-05-10T14:24:22.856Z,19.62
2018-05-10T14:26:48.820Z,19.60
2018-05-10T14:29:14.768Z,19.59
2018-05-10T14:31:40.750Z,19.45
2018-05-10T14:34:06.706Z,19.17
2018-05-10T14:36:32.638Z,19.09
2018-05-10T14:38:58.599Z,19.00
2018-05-10T14:41:24.559Z,19.07
2018-05-10T14:43:50.482Z,18.85
2018-05-10T14:46:16.457Z,18.81
2018-05-10T14:48:42.425Z,18.81
2018-05-10T14:51:08.409Z,18.72
2018-05-10T14:53:34.343Z,18.71
2018-05-10T14:56:00.285Z,18.59
2018-05-10T14:58:26.248Z,18.56
2018-05-10T15:00:52.210Z,18.49
2018-05-10T15:03:18.186Z,18.44
2018-05-10T15:05:44.107Z,18.49
2018-05-10T15:08:10.087Z,18.55
2018-05-10T15:10:36.041Z,18.34
2018-05-10T15:13:02.054Z,18.32
2018-05-10T15:15:27.998Z,18.29
2018-05-10T15:17:53.977Z,18.37
2018-05-10T15:20:19.961Z,18.23
2018-05-10T15:22:45.913Z,18.07
2018-05-10T15:25:11.832Z,17.90
2018-05-10T15:27:38.707Z,17.79
2018-05-10T15:30:04.685Z,17.58
2018-05-10T15:32:30.627Z,17.50
2018-05-10T15:34:56.626Z,17.35
2018-05-10T15:37:22.567Z,17.32
2018-05-10T15:39:49.229Z,17.10
2018-05-10T15:42:15.178Z,16.96
2018-05-10T15:44:41.134Z,16.91
2018-05-10T15:47:07.060Z,16.77
2018-05-10T15:49:33.044Z,16.80
2018-05-10T15:51:58.990Z,16.54
2018-05-10T15:54:25.054Z,16.55
2018-05-10T15:56:51.002Z,16.49
2018-05-10T15:59:16.978Z,16.38
2018-05-10T16:01:42.942Z,16.38
2018-05-10T16:04:08.918Z,16.51
2018-05-10T16:06:34.924Z,16.66
2018-05-10T16:09:00.956Z,16.64
2018-05-10T16:11:26.902Z,16.63
2018-05-10T16:13:52.899Z,16.69
2018-05-10T16:16:18.850Z,16.78
2018-05-10T16:18:44.795Z,16.78
2018-05-10T16:21:10.741Z,16.68
2018-05-10T16:23:36.724Z,16.61
2018-05-10T16:26:02.663Z,16.61
2018-05-10T16:28:28.621Z,16.58
2018-05-10T16:30:54.584Z,16.59
2018-05-10T16:33:20.562Z,16.70
2018-05-10T16:35:46.523Z,16.65
2018-05-10T16:38:12.473Z,16.72
2018-05-10T16:40:38.439Z,16.65
2018-05-10T16:43:05.080Z,16.66
2018-05-10T16:45:31.077Z,16.68
2018-05-10T16:47:57.037Z,16.57
2018-05-10T16:50:23.035Z,16.68
2018-05-10T16:52:48.957Z,16.61
2018-05-10T16:55:14.925Z,16.49
2018-05-10T16:57:40.916Z,16.51
2018-05-10T17:00:06.873Z,16.62
2018-05-10T17:02:32.852Z,16.63
2018-05-10T17:04:58.793Z,16.45
2018-05-10T17:07:24.790Z,16.48
2018-05-10T17:09:50.780Z,16.45
2018-05-10T17:12:16.880Z,16.41
2018-05-10T17:14:42.875Z,16.42
2018-05-10T17:17:08.878Z,16.41
2018-05-10T17:19:34.877Z,16.22
2018-05-10T17:22:00.905Z,16.05
2018-05-10T17:24:26.869Z,16.01
2018-05-10T17:26:53.503Z,15.94
2018-05-10T17:29:19.521Z,15.95
2018-05-10T17:31:45.565Z,16.00
2018-05-10T17:34:11.545Z,15.89
2018-05-10T17:36:37.496Z,15.82
2018-05-10T17:39:03.554Z,15.86
2018-05-10T17:41:29.534Z,15.71
2018-05-10T17:43:56.968Z,15.67
2018-05-10T17:46:22.948Z,15.75
2018-05-10T17:48:48.932Z,15.66
2018-05-10T17:51:15.812Z,15.60
2018-05-10T17:53:41.781Z,15.59
2018-05-10T17:56:07.760Z,15.64
2018-05-10T17:58:33.724Z,15.67
2018-05-10T18:00:59.686Z,15.65
2018-05-10T18:03:25.694Z,15.59
2018-05-10T18:05:51.616Z,15.65
2018-05-10T18:08:17.572Z,15.59
2018-05-10T18:10:43.649Z,15.59
2018-05-10T18:13:09.657Z,15.56
2018-05-10T18:15:35.643Z,15.45
2018-05-10T18:18:01.603Z,15.51
2018-05-10T18:20:27.685Z,15.51
2018-05-10T18:22:53.719Z,15.43
2018-05-10T18:25:19.745Z,15.44
2018-05-10T18:27:45.691Z,15.35
2018-05-10T18:30:11.716Z,15.36
2018-05-10T18:32:37.722Z,15.42
2018-05-10T18:35:03.767Z,15.38
2018-05-10T18:37:29.797Z,15.38
2018-05-10T18:39:55.760Z,15.29
2018-05-10T18:42:21.718Z,15.28
2018-05-10T18:44:47.750Z,15.31
2018-05-10T18:47:13.748Z,15.24
2018-05-10T18:49:39.682Z,15.29
2018-05-10T18:52:05.822Z,15.29
2018-05-10T18:54:31.876Z,15.20
2018-05-10T18:56:57.882Z,15.21
2018-05-10T18:59:24.035Z,15.12
2018-05-10T19:01:50.073Z,15.05
2018-05-10T19:04:16.203Z,15.07
2018-05-10T19:06:42.149Z,15.10
2018-05-10T19:09:08.137Z,15.07
2018-05-10T19:11:35.013Z,15.03
2018-05-10T19:14:01.572Z,14.98
2018-05-10T19:16:27.540Z,15.03
2018-05-10T19:18:53.494Z,14.96
2018-05-10T19:21:19.495Z,14.99
2018-05-10T19:23:45.518Z,14.91
2018-05-10T19:26:12.818Z,14.85
2018-05-10T19:28:38.792Z,14.84
2018-05-10T19:31:04.916Z,14.79
2018-05-10T19:33:31.904Z,14.80
2018-05-10T19:35:57.852Z,14.76
2018-05-10T19:38:24.623Z,14.69
2018-05-10T19:40:50.655Z,14.67
2018-05-10T19:43:16.667Z,14.66
2018-05-10T19:45:42.619Z,14.61
2018-05-10T19:48:09.680Z,14.63
2018-05-10T19:50:35.703Z,14.61
2018-05-10T19:53:01.664Z,14.69
2018-05-10T19:55:27.598Z,14.64
2018-05-10T19:57:53.546Z,14.68
2018-05-10T20:00:19.518Z,14.68
2018-05-10T20:02:45.542Z,14.63
2018-05-10T20:05:11.480Z,14.57
2018-05-10T20:07:37.503Z,14.63
2018-05-10T20:10:03.532Z,14.66
2018-05-10T20:12:29.546Z,14.52
2018-05-10T20:14:55.573Z,14.54
2018-05-10T20:17:21.544Z,14.56
2018-05-10T20:19:47.465Z,14.51
2018-05-10T20:22:13.574Z,14.52
2018-05-10T20:24:39.532Z,14.42
2018-05-10T20:27:06.020Z,14.35
2018-05-10T20:29:31.974Z,14.29
2018-05-10T20:31:57.930Z,14.23
2018-05-10T20:34:23.874Z,14.20
2018-05-10T20:36:49.834Z,14.28
2018-05-10T20:39:15.836Z,14.19
2018-05-10T20:41:41.891Z,14.18
2018-05-10T20:44:07.823Z,14.11
2018-05-10T20:46:33.800Z,14.10
2018-05-10T20:48:59.824Z,14.07
2018-05-10T20:51:25.757Z,14.10
2018-05-10T20:53:51.688Z,14.13
2018-05-10T20:56:17.741Z,14.02
2018-05-10T20:58:43.704Z,14.04
2018-05-10T21:01:09.651Z,13.97
2018-05-10T21:03:35.596Z,13.92
2018-05-10T21:06:01.519Z,13.93
2018-05-10T21:08:27.482Z,13.95
2018-05-10T21:10:53.539Z,13.98
2018-05-10T21:13:19.521Z,13.98
2018-05-10T21:15:45.485Z,13.98
2018-05-10T21:18:11.430Z,13.86
2018-05-10T21:20:37.384Z,13.79
2018-05-10T21:23:03.399Z,13.74
2018-05-10T21:25:29.263Z,13.67
2018-05-10T21:27:55.243Z,13.65
2018-05-10T21:30:21.233Z,13.65
2018-05-10T21:32:47.205Z,13.77
2018-05-10T21:35:13.201Z,13.77
2018-05-10T21:37:39.138Z,13.59
2018-05-10T21:40:05.111Z,13.65
2018-05-10T21:42:31.050Z,13.65
2018-05-10T21:44:56.980Z,13.62
2018-05-10T21:47:22.913Z,13.56
2018-05-10T21:50:03.210Z,13.42
2018-05-10T21:52:29.171Z,13.39
2018-05-10T21:54:55.185Z,13.25
2018-05-10T21:57:21.048Z,13.35
2018-05-10T21:59:46.953Z,13.36
2018-05-10T22:02:12.935Z,13.34
2018-05-10T22:04:38.896Z,13.37
2018-05-10T22:07:04.840Z,13.28
2018-05-10T22:09:30.764Z,13.37
2018-05-10T22:11:56.689Z,13.26
2018-05-10T22:14:22.620Z,13.15
2018-05-10T22:16:48.545Z,13.17
2018-05-10T22:19:14.496Z,13.09
2018-05-10T22:21:40.427Z,13.08
2018-05-10T22:24:06.364Z,13.11
2018-05-10T22:26:32.284Z,13.14
2018-05-10T22:28:58.220Z,13.01
2018-05-10T22:31:24.140Z,13.07
2018-05-10T22:33:50.069Z,13.02
2018-05-10T22:36:15.995Z,12.90
2018-05-10T22:38:41.953Z,12.83
2018-05-10T22:41:07.869Z,12.90
2018-05-10T22:43:33.804Z,12.94
2018-05-10T22:45:59.751Z,12.97
2018-05-10T22:48:25.688Z,12.96
2018-05-10T22:50:51.603Z,12.98
2018-05-10T22:53:17.513Z,13.01
2018-05-10T22:55:43.450Z,12.95
2018-05-10T22:58:09.374Z,12.93
2018-05-10T23:00:35.323Z,12.93
2018-05-10T23:03:01.260Z,12.89
2018-05-10T23:05:30.188Z,12.89
2018-05-10T23:07:56.112Z,12.93
2018-05-10T23:10:22.035Z,12.99
2018-05-10T23:12:47.967Z,13.01
2018-05-10T23:15:13.891Z,12.98
2018-05-10T23:17:39.857Z,12.82
2018-05-10T23:20:05.787Z,12.87
2018-05-10T23:22:31.712Z,12.79
2018-05-10T23:24:57.627Z,12.84
2018-05-10T23:27:23.543Z,12.77
2018-05-10T23:29:49.461Z,12.81
2018-05-10T23:32:15.372Z,12.86
2018-05-10T23:34:41.286Z,12.83
2018-05-10T23:37:07.181Z,12.73
2018-05-10T23:39:33.138Z,12.74
2018-05-10T23:41:59.054Z,12.61
2018-05-10T23:44:24.968Z,12.73
2018-05-10T23:46:50.907Z,12.83
2018-05-10T23:49:16.816Z,12.87
2018-05-10T23:51:42.746Z,12.81
2018-05-10T23:54:08.660Z,12.81
2018-05-10T23:56:34.600Z,12.87
2018-05-10T23:59:00.527Z,12.88
